createdAt,value
2017-09-16T00:01:34.875Z,10.61
2017-09-16T00:04:02.842Z,10.67
2017-09-16T00:06:30.775Z,10.66
2017-09-16T00:08:58.690Z,10.68
2017-09-16T00:11:26.997Z,10.73
2017-09-16T00:13:55.016Z,10.53
2017-09-16T00:16:22.975Z,10.52
2017-09-16T00:18:50.877Z,10.50
2017-09-16T00:21:19.356Z,10.50
2017-09-16T00:23:48.629Z,10.40
2017-09-16T00:26:16.539Z,10.41
2017-09-16T00:28:44.487Z,10.36
2017-09-16T00:31:12.393Z,10.38
2017-09-16T00:33:40.286Z,10.32
2017-09-16T00:36:08.264Z,10.34
2017-09-16T00:38:36.227Z,10.33
2017-09-16T00:41:04.132Z,10.38
2017-09-16T00:43:32.475Z,10.46
2017-09-16T00:46:00.447Z,10.38
2017-09-16T00:48:28.349Z,10.26
2017-09-16T00:50:56.683Z,10.17
2017-09-16T00:53:24.662Z,10.15
2017-09-16T00:55:52.572Z,10.10
2017-09-16T00:58:20.504Z,10.11
2017-09-16T01:00:48.411Z,10.07
2017-09-16T01:03:16.438Z,9.99
2017-09-16T01:05:44.371Z,9.97
2017-09-16T01:08:12.402Z,9.93
2017-09-16T01:10:40.752Z,10.02
2017-09-16T01:13:08.723Z,10.02
2017-09-16T01:15:36.628Z,10.02
2017-09-16T01:18:04.616Z,9.95
2017-09-16T01:20:32.618Z,9.98
2017-09-16T01:23:00.553Z,9.92
2017-09-16T01:25:28.451Z,9.86
2017-09-16T01:27:56.365Z,9.83
2017-09-16T01:30:24.656Z,9.82
2017-09-16T01:32:52.557Z,9.79
2017-09-16T01:35:20.510Z,9.71
2017-09-16T01:37:48.420Z,9.70
2017-09-16T01:40:16.316Z,9.72
2017-09-16T01:42:44.623Z,9.62
2017-09-16T01:45:12.528Z,9.66
2017-09-16T01:47:40.483Z,9.73
2017-09-16T01:50:08.411Z,9.63
2017-09-16T01:52:36.329Z,9.61
2017-09-16T01:55:04.229Z,9.69
2017-09-16T01:57:32.547Z,9.65
2017-09-16T02:00:00.455Z,9.65
2017-09-16T02:02:28.411Z,9.62
2017-09-16T02:04:56.382Z,9.66
2017-09-16T02:07:24.289Z,9.53
2017-09-16T02:09:52.195Z,9.53
2017-09-16T02:12:20.184Z,9.47
2017-09-16T02:14:48.149Z,9.52
2017-09-16T02:17:16.042Z,9.49
2017-09-16T02:19:44.355Z,9.49
2017-09-16T02:22:12.351Z,9.40
2017-09-16T02:24:40.243Z,9.39
2017-09-16T02:27:08.202Z,9.42
2017-09-16T02:29:36.120Z,9.45
2017-09-16T02:32:04.010Z,9.44
2017-09-16T02:34:31.991Z,9.39
2017-09-16T02:36:59.889Z,9.34
2017-09-16T02:39:28.240Z,9.29
2017-09-16T02:41:56.212Z,9.29
2017-09-16T02:44:24.283Z,9.31
2017-09-16T02:46:52.260Z,9.25
2017-09-16T02:49:20.215Z,9.30
2017-09-16T02:51:48.149Z,9.28
2017-09-16T02:54:16.043Z,9.33
2017-09-16T02:56:44.001Z,9.26
2017-09-16T02:59:12.003Z,9.23
2017-09-16T03:01:40.107Z,9.18
2017-09-16T03:04:08.043Z,9.17
2017-09-16T03:06:35.995Z,9.22
2017-09-16T03:09:03.896Z,9.27
2017-09-16T03:11:32.204Z,9.28
2017-09-16T03:14:00.112Z,9.16
2017-09-16T03:16:28.002Z,9.22
2017-09-16T03:18:55.919Z,9.20
2017-09-16T03:21:24.022Z,9.17
2017-09-16T03:23:51.919Z,9.17
2017-09-16T03:26:20.273Z,9.16
2017-09-16T03:28:48.235Z,9.09
2017-09-16T03:31:16.138Z,9.04
2017-09-16T03:33:44.445Z,8.92
2017-09-16T03:36:12.335Z,8.85
2017-09-16T03:38:40.236Z,8.89
2017-09-16T03:41:08.153Z,8.93
2017-09-16T03:43:36.116Z,8.86
2017-09-16T03:46:04.127Z,8.82
2017-09-16T03:48:32.463Z,8.78
2017-09-16T03:51:00.359Z,8.82
2017-09-16T03:53:28.267Z,8.82
2017-09-16T03:55:56.623Z,8.80
2017-09-16T03:58:24.534Z,8.83
2017-09-16T04:00:52.451Z,8.74
2017-09-16T04:03:20.414Z,8.75
2017-09-16T04:05:48.374Z,8.81
2017-09-16T04:08:16.308Z,8.83
2017-09-16T04:10:44.251Z,8.81
2017-09-16T04:13:12.538Z,8.88
2017-09-16T04:15:40.461Z,8.75
2017-09-16T04:18:08.448Z,8.74
2017-09-16T04:20:36.374Z,8.71
2017-09-16T04:23:04.273Z,8.67
2017-09-16T04:25:32.196Z,8.59
2017-09-16T04:28:00.411Z,8.56
2017-09-16T04:30:28.371Z,8.51
2017-09-16T04:32:56.273Z,8.51
2017-09-16T04:35:24.639Z,8.56
2017-09-16T04:37:52.584Z,8.58
2017-09-16T04:40:20.575Z,8.52
2017-09-16T04:42:48.481Z,8.53
2017-09-16T04:45:16.375Z,8.50
2017-09-16T04:47:44.280Z,8.53
2017-09-16T04:50:12.179Z,8.55
2017-09-16T04:52:40.113Z,8.58
2017-09-16T04:55:08.002Z,8.60
2017-09-16T04:57:36.330Z,8.63
2017-09-16T05:00:04.258Z,8.63
2017-09-16T05:02:32.190Z,8.65
2017-09-16T05:05:00.084Z,8.62
2017-09-16T05:07:28.406Z,8.70
2017-09-16T05:09:56.296Z,8.75
2017-09-16T05:12:24.183Z,8.74
2017-09-16T05:14:52.931Z,8.75
2017-09-16T05:17:20.946Z,8.91
2017-09-16T05:19:49.234Z,9.49
2017-09-16T05:22:17.147Z,10.33
2017-09-16T05:24:45.055Z,11.21
2017-09-16T05:27:13.410Z,12.16
2017-09-16T05:29:41.311Z,12.87
2017-09-16T05:32:09.711Z,13.74
2017-09-16T05:34:37.636Z,14.52
2017-09-16T05:37:05.586Z,15.10
2017-09-16T05:39:33.504Z,15.90
2017-09-16T05:42:01.493Z,16.86
2017-09-16T05:44:29.497Z,17.37
2017-09-16T05:46:57.415Z,18.19
2017-09-16T05:49:25.456Z,17.82
2017-09-16T05:51:53.807Z,18.20
2017-09-16T05:54:21.749Z,17.77
2017-09-16T05:56:49.749Z,18.42
2017-09-16T05:59:17.651Z,19.56
2017-09-16T06:01:45.954Z,20.69
2017-09-16T06:04:13.860Z,19.81
2017-09-16T06:06:41.789Z,21.11
2017-09-16T06:09:09.803Z,22.44
2017-09-16T06:11:37.726Z,22.34
2017-09-16T06:14:05.619Z,23.26
2017-09-16T06:16:33.656Z,23.08
2017-09-16T06:19:01.675Z,24.10
2017-09-16T06:21:29.638Z,24.85
2017-09-16T06:23:57.573Z,25.23
2017-09-16T06:26:25.580Z,26.25
2017-09-16T06:28:53.557Z,27.34
2017-09-16T06:31:21.475Z,27.87
2017-09-16T06:33:49.386Z,26.33
2017-09-16T06:36:17.297Z,26.24
2017-09-16T06:38:45.321Z,27.08
2017-09-16T06:41:13.240Z,27.50
2017-09-16T06:43:41.158Z,28.56
2017-09-16T06:46:09.233Z,29.15
2017-09-16T06:48:37.152Z,29.92
2017-09-16T06:51:05.070Z,28.77
2017-09-16T06:53:33.028Z,29.59
2017-09-16T06:56:00.987Z,29.37
2017-09-16T06:58:28.934Z,29.72
2017-09-16T07:00:56.946Z,30.37
2017-09-16T07:03:24.868Z,29.20
2017-09-16T07:05:52.779Z,28.47
2017-09-16T07:08:20.680Z,28.99
2017-09-16T07:10:48.620Z,29.71
2017-09-16T07:13:16.574Z,28.84
2017-09-16T07:15:44.576Z,30.43
2017-09-16T07:18:12.873Z,31.33
2017-09-16T07:20:40.885Z,30.21
2017-09-16T07:23:08.962Z,30.35
2017-09-16T07:25:36.885Z,31.57
2017-09-16T07:28:04.803Z,32.54
2017-09-16T07:30:32.723Z,33.22
2017-09-16T07:33:00.632Z,31.80
2017-09-16T07:35:28.552Z,32.64
2017-09-16T07:37:56.450Z,31.68
2017-09-16T07:40:24.384Z,33.19
2017-09-16T07:42:52.280Z,30.09
2017-09-16T07:45:20.188Z,31.40
2017-09-16T07:47:48.099Z,31.63
2017-09-16T07:50:15.990Z,32.16
2017-09-16T07:52:43.891Z,32.40
2017-09-16T07:55:12.210Z,32.33
2017-09-16T07:57:40.116Z,32.52
2017-09-16T08:00:08.027Z,32.70
2017-09-16T08:02:35.936Z,32.41
2017-09-16T08:05:03.906Z,33.88
2017-09-16T08:07:31.828Z,34.71
2017-09-16T08:09:59.739Z,33.38
2017-09-16T08:12:27.691Z,34.29
2017-09-16T08:14:55.690Z,33.13
2017-09-16T08:17:23.590Z,33.18
2017-09-16T08:19:51.916Z,33.30
2017-09-16T08:22:20.819Z,32.46
2017-09-16T08:24:48.727Z,30.22
2017-09-16T08:27:16.659Z,32.58
2017-09-16T08:29:44.586Z,32.98
2017-09-16T08:32:12.604Z,32.70
2017-09-16T08:34:40.577Z,33.22
2017-09-16T08:37:08.640Z,33.26
2017-09-16T08:39:36.560Z,33.75
2017-09-16T08:42:04.454Z,33.64
2017-09-16T08:44:32.634Z,33.35
2017-09-16T08:47:00.611Z,32.94
2017-09-16T08:49:28.674Z,33.62
2017-09-16T08:51:57.381Z,33.54
2017-09-16T08:54:25.356Z,33.49
2017-09-16T08:56:53.339Z,33.37
2017-09-16T08:59:21.690Z,32.84
2017-09-16T09:01:49.663Z,33.28
2017-09-16T09:04:17.591Z,34.30
2017-09-16T09:06:45.513Z,33.38
2017-09-16T09:09:13.411Z,33.68
2017-09-16T09:11:41.328Z,32.83
2017-09-16T09:14:09.237Z,32.40
2017-09-16T09:16:37.571Z,32.96
2017-09-16T09:19:05.479Z,32.43
2017-09-16T09:21:33.386Z,33.42
2017-09-16T09:24:01.311Z,32.84
2017-09-16T09:26:29.675Z,30.96
2017-09-16T09:28:58.330Z,31.30
2017-09-16T09:31:26.347Z,30.69
2017-09-16T09:33:54.671Z,30.76
2017-09-16T09:36:22.599Z,31.53
2017-09-16T09:38:50.514Z,32.70
2017-09-16T09:41:18.492Z,31.09
2017-09-16T09:43:46.448Z,32.32
2017-09-16T09:46:14.355Z,32.12
2017-09-16T09:48:42.671Z,30.59
2017-09-16T09:51:10.671Z,29.78
2017-09-16T09:53:38.583Z,28.84
2017-09-16T09:56:06.519Z,27.60
2017-09-16T09:58:34.437Z,27.47
2017-09-16T10:01:02.360Z,27.18
2017-09-16T10:03:30.264Z,26.96
2017-09-16T10:05:59.296Z,26.86
2017-09-16T10:08:27.256Z,28.17
2017-09-16T10:10:55.273Z,29.66
2017-09-16T10:13:23.632Z,29.16
2017-09-16T10:15:51.591Z,29.13
2017-09-16T10:18:19.490Z,28.68
2017-09-16T10:20:47.815Z,28.38
2017-09-16T10:23:15.729Z,27.34
2017-09-16T10:25:44.037Z,26.63
2017-09-16T10:28:12.059Z,25.76
2017-09-16T10:30:39.958Z,25.77
2017-09-16T10:33:08.250Z,26.06
2017-09-16T10:35:36.227Z,26.12
2017-09-16T10:38:04.244Z,26.09
2017-09-16T10:40:32.199Z,26.62
2017-09-16T10:43:00.110Z,26.40
2017-09-16T10:45:28.037Z,26.41
2017-09-16T10:47:56.002Z,26.06
2017-09-16T10:50:23.927Z,26.24
2017-09-16T10:52:51.841Z,26.94
2017-09-16T10:55:20.613Z,26.13
2017-09-16T10:57:48.515Z,27.29
2017-09-16T11:00:16.901Z,27.64
2017-09-16T11:02:45.224Z,28.08
2017-09-16T11:05:13.177Z,27.00
2017-09-16T11:07:41.155Z,25.66
2017-09-16T11:10:09.178Z,24.61
2017-09-16T11:12:37.491Z,23.91
2017-09-16T11:15:05.408Z,22.66
2017-09-16T11:17:33.324Z,22.16
2017-09-16T11:20:01.241Z,21.71
2017-09-16T11:22:29.220Z,21.19
2017-09-16T11:24:57.128Z,20.93
2017-09-16T11:27:25.066Z,20.95
2017-09-16T11:29:53.381Z,20.81
2017-09-16T11:32:21.302Z,20.56
2017-09-16T11:34:49.224Z,19.82
2017-09-16T11:37:17.268Z,19.81
2017-09-16T11:39:45.203Z,19.78
2017-09-16T11:42:13.217Z,19.65
2017-09-16T11:44:41.158Z,19.75
2017-09-16T11:47:09.489Z,20.23
2017-09-16T11:49:37.409Z,20.47
2017-09-16T11:52:05.703Z,20.62
2017-09-16T11:54:33.661Z,20.93
2017-09-16T11:57:01.583Z,21.01
2017-09-16T11:59:29.519Z,21.12
2017-09-16T12:01:57.450Z,21.06
2017-09-16T12:04:25.757Z,21.23
2017-09-16T12:06:53.675Z,21.32
2017-09-16T12:09:21.605Z,21.28
2017-09-16T12:11:49.556Z,20.86
2017-09-16T12:14:17.488Z,20.60
2017-09-16T12:16:45.416Z,20.68
2017-09-16T12:19:13.340Z,20.20
2017-09-16T12:21:41.653Z,20.07
2017-09-16T12:24:09.560Z,19.79
2017-09-16T12:26:37.485Z,19.86
2017-09-16T12:29:05.392Z,19.99
2017-09-16T12:31:33.325Z,19.76
2017-09-16T12:34:01.243Z,19.51
2017-09-16T12:36:29.178Z,19.62
2017-09-16T12:38:57.110Z,19.56
2017-09-16T12:41:25.013Z,19.52
2017-09-16T12:43:52.919Z,19.47
2017-09-16T12:46:21.485Z,19.73
2017-09-16T12:48:49.402Z,19.79
2017-09-16T12:51:17.422Z,19.81
2017-09-16T12:53:45.493Z,19.51
2017-09-16T12:56:13.407Z,19.50
2017-09-16T12:58:41.363Z,19.56
2017-09-16T13:01:09.280Z,19.88
2017-09-16T13:03:37.195Z,20.12
2017-09-16T13:06:05.504Z,20.31
2017-09-16T13:08:33.407Z,20.24
2017-09-16T13:11:01.324Z,20.02
2017-09-16T13:13:29.234Z,19.99
2017-09-16T13:15:57.157Z,19.72
2017-09-16T13:18:25.131Z,19.83
2017-09-16T13:20:53.094Z,19.69
2017-09-16T13:23:20.991Z,19.45
2017-09-16T13:25:48.926Z,19.35
2017-09-16T13:28:16.865Z,19.59
2017-09-16T13:30:44.787Z,20.03
2017-09-16T13:33:12.771Z,20.05
2017-09-16T13:35:40.683Z,20.29
2017-09-16T13:38:09.048Z,20.73
2017-09-16T13:40:36.966Z,21.01
2017-09-16T13:43:04.925Z,20.41
2017-09-16T13:45:32.899Z,20.46
2017-09-16T13:48:00.808Z,20.43
2017-09-16T13:50:28.754Z,20.47
2017-09-16T13:52:56.705Z,20.35
2017-09-16T13:55:24.683Z,20.10
2017-09-16T13:57:52.588Z,19.89
2017-09-16T14:00:20.508Z,19.93
2017-09-16T14:02:48.511Z,19.74
2017-09-16T14:05:16.449Z,19.94
2017-09-16T14:07:44.355Z,19.96
2017-09-16T14:10:12.285Z,19.96
2017-09-16T14:12:40.205Z,19.86
2017-09-16T14:15:08.531Z,19.94
2017-09-16T14:17:36.484Z,19.80
2017-09-16T14:20:04.426Z,20.27
2017-09-16T14:22:32.335Z,20.09
2017-09-16T14:25:00.260Z,20.15
2017-09-16T14:27:28.592Z,20.24
2017-09-16T14:29:56.500Z,19.87
2017-09-16T14:32:24.808Z,19.56
2017-09-16T14:34:52.711Z,19.58
2017-09-16T14:39:55.085Z,19.09
2017-09-16T14:42:23.012Z,19.03
2017-09-16T14:44:51.318Z,19.30
2017-09-16T14:47:19.331Z,19.21
2017-09-16T14:49:47.303Z,19.25
2017-09-16T14:52:15.228Z,19.24
2017-09-16T14:54:43.232Z,19.10
2017-09-16T14:57:11.160Z,19.29
2017-09-16T14:59:39.191Z,19.57
2017-09-16T15:02:07.508Z,19.62
2017-09-16T15:04:35.411Z,19.35
2017-09-16T15:07:03.343Z,19.21
2017-09-16T15:09:31.261Z,19.10
2017-09-16T15:11:59.167Z,19.43
2017-09-16T15:14:27.149Z,19.50
2017-09-16T15:16:55.086Z,19.44
2017-09-16T15:19:23.627Z,19.51
2017-09-16T15:21:51.554Z,19.70
2017-09-16T15:24:19.473Z,19.82
2017-09-16T15:26:47.418Z,19.82
2017-09-16T15:29:15.500Z,19.83
2017-09-16T15:31:43.428Z,20.14
2017-09-16T15:34:11.360Z,19.93
2017-09-16T15:36:40.160Z,19.79
2017-09-16T15:39:08.500Z,19.43
2017-09-16T15:41:36.449Z,19.47
2017-09-16T15:44:04.454Z,19.49
2017-09-16T15:46:32.373Z,19.59
2017-09-16T15:49:00.332Z,19.84
2017-09-16T15:51:28.243Z,19.85
2017-09-16T15:53:56.323Z,19.68
2017-09-16T15:56:24.294Z,19.49
2017-09-16T15:58:52.263Z,19.59
2017-09-16T16:01:20.175Z,19.51
2017-09-16T16:03:48.100Z,19.54
2017-09-16T16:06:16.067Z,19.32
2017-09-16T16:08:43.975Z,19.25
2017-09-16T16:11:11.886Z,19.26
2017-09-16T16:13:39.838Z,19.27
2017-09-16T16:16:07.774Z,19.02
2017-09-16T16:18:36.116Z,18.83
2017-09-16T16:21:04.027Z,18.73
2017-09-16T16:23:31.937Z,18.82
2017-09-16T16:25:59.875Z,18.82
2017-09-16T16:28:27.791Z,18.72
2017-09-16T16:30:55.710Z,18.60
2017-09-16T16:33:23.737Z,18.60
2017-09-16T16:35:51.648Z,18.26
2017-09-16T16:38:19.559Z,18.07
2017-09-16T16:40:47.479Z,18.01
2017-09-16T16:43:15.380Z,18.12
2017-09-16T16:45:43.301Z,17.88
2017-09-16T16:48:11.604Z,17.70
2017-09-16T16:50:39.535Z,17.61
2017-09-16T16:53:07.835Z,17.53
2017-09-16T16:55:35.736Z,17.57
2017-09-16T16:58:03.675Z,17.47
2017-09-16T17:00:31.612Z,17.45
2017-09-16T17:02:59.919Z,17.28
2017-09-16T17:05:27.827Z,17.23
2017-09-16T17:07:55.748Z,17.17
2017-09-16T17:10:23.771Z,17.05
2017-09-16T17:12:51.702Z,16.94
2017-09-16T17:15:19.703Z,16.91
2017-09-16T17:17:47.617Z,16.56
2017-09-16T17:20:15.540Z,16.46
2017-09-16T17:22:43.465Z,16.40
2017-09-16T17:25:11.434Z,16.25
2017-09-16T17:27:39.380Z,16.27
2017-09-16T17:30:07.287Z,16.12
2017-09-16T17:32:35.283Z,16.00
2017-09-16T17:35:03.267Z,15.93
2017-09-16T17:37:31.592Z,15.74
2017-09-16T17:39:59.498Z,15.72
2017-09-16T17:42:27.461Z,15.65
2017-09-16T17:44:55.367Z,15.57
2017-09-16T17:47:23.268Z,15.48
2017-09-16T17:49:51.184Z,15.40
2017-09-16T17:52:19.099Z,15.31
2017-09-16T17:54:47.044Z,15.31
2017-09-16T17:57:15.348Z,15.28
2017-09-16T17:59:43.254Z,15.25
2017-09-16T18:02:11.196Z,15.23
2017-09-16T18:04:39.188Z,15.19
2017-09-16T18:07:07.100Z,15.12
2017-09-16T18:09:35.009Z,15.06
2017-09-16T18:12:02.920Z,15.05
2017-09-16T18:14:31.232Z,14.96
2017-09-16T18:16:59.153Z,14.90
2017-09-16T18:19:27.464Z,14.86
2017-09-16T18:21:55.599Z,14.85
2017-09-16T18:26:57.832Z,14.79
2017-09-16T18:29:25.745Z,14.80
2017-09-16T18:31:53.704Z,14.72
2017-09-16T18:34:21.609Z,14.70
2017-09-16T18:36:49.920Z,14.68
2017-09-16T18:39:17.858Z,14.63
2017-09-16T18:41:45.847Z,14.60
2017-09-16T18:44:13.764Z,14.55
2017-09-16T18:46:41.692Z,14.43
2017-09-16T18:49:09.599Z,14.37
2017-09-16T18:51:37.548Z,14.34
2017-09-16T18:54:05.458Z,14.26
2017-09-16T18:56:33.786Z,14.16
2017-09-16T18:59:01.772Z,14.15
2017-09-16T19:01:29.683Z,14.06
2017-09-16T19:03:57.605Z,14.04
2017-09-16T19:06:25.548Z,13.93
2017-09-16T19:08:53.473Z,13.90
2017-09-16T19:11:21.807Z,13.91
2017-09-16T19:13:49.791Z,13.88
2017-09-16T19:16:17.710Z,13.86
2017-09-16T19:18:45.681Z,13.77
2017-09-16T19:21:13.584Z,13.69
2017-09-16T19:23:41.484Z,13.74
2017-09-16T19:26:09.817Z,13.80
2017-09-16T19:28:37.750Z,13.73
2017-09-16T19:31:05.676Z,13.72
2017-09-16T19:33:33.595Z,13.73
2017-09-16T19:36:01.515Z,13.78
2017-09-16T19:38:29.422Z,13.79
2017-09-16T19:40:57.372Z,13.79
2017-09-16T19:43:25.292Z,13.82
2017-09-16T19:45:53.244Z,13.81
2017-09-16T19:48:21.217Z,13.83
2017-09-16T19:50:49.133Z,13.83
2017-09-16T19:53:17.052Z,13.96
2017-09-16T19:55:45.112Z,13.98
2017-09-16T19:58:13.532Z,13.92
2017-09-16T20:00:41.517Z,13.98
2017-09-16T20:03:09.720Z,14.02
2017-09-16T20:05:37.699Z,14.01
2017-09-16T20:08:05.647Z,14.09
2017-09-16T20:10:33.687Z,14.13
2017-09-16T20:13:01.594Z,14.15
2017-09-16T20:15:29.742Z,14.28
2017-09-16T20:17:57.782Z,14.28
2017-09-16T20:20:25.875Z,14.34
2017-09-16T20:22:53.894Z,14.31
2017-09-16T20:25:21.840Z,14.38
2017-09-16T20:27:50.191Z,14.32
2017-09-16T20:30:18.108Z,14.30
2017-09-16T20:32:46.180Z,14.24
2017-09-16T20:35:14.096Z,14.10
2017-09-16T20:37:42.000Z,14.06
2017-09-16T20:40:10.038Z,14.11
2017-09-16T20:42:38.099Z,14.03
2017-09-16T20:45:06.171Z,13.91
2017-09-16T20:47:34.253Z,13.84
2017-09-16T20:50:02.269Z,13.77
2017-09-16T20:52:30.238Z,13.62
2017-09-16T20:54:58.935Z,13.48
2017-09-16T20:57:26.930Z,13.47
2017-09-16T20:59:54.857Z,13.42
2017-09-16T21:02:22.788Z,13.31
2017-09-16T21:04:50.712Z,13.30
2017-09-16T21:07:18.636Z,13.25
2017-09-16T21:09:46.994Z,13.24
2017-09-16T21:12:14.909Z,13.23
2017-09-16T21:14:42.812Z,13.14
2017-09-16T21:17:10.785Z,13.13
2017-09-16T21:19:38.682Z,13.14
2017-09-16T21:22:06.999Z,13.02
2017-09-16T21:24:35.117Z,13.01
2017-09-16T21:27:03.435Z,13.01
2017-09-16T21:29:31.419Z,12.98
2017-09-16T21:31:59.333Z,13.03
2017-09-16T21:34:27.251Z,12.96
2017-09-16T21:36:55.889Z,12.86
2017-09-16T21:39:24.208Z,12.80
2017-09-16T21:41:52.129Z,12.77
2017-09-16T21:44:20.091Z,12.76
2017-09-16T21:46:48.004Z,12.74
2017-09-16T21:49:15.938Z,12.80
2017-09-16T21:51:43.844Z,12.68
2017-09-16T21:54:11.747Z,12.64
2017-09-16T21:56:39.655Z,12.68
2017-09-16T21:59:07.969Z,12.70
2017-09-16T22:01:35.964Z,12.61
2017-09-16T22:04:03.903Z,12.62
2017-09-16T22:06:31.804Z,12.55
2017-09-16T22:08:59.728Z,12.51
2017-09-16T22:11:27.636Z,12.42
2017-09-16T22:13:56.258Z,12.40
2017-09-16T22:16:24.569Z,12.46
2017-09-16T22:18:52.472Z,12.33
2017-09-16T22:21:20.391Z,12.30
2017-09-16T22:23:48.415Z,12.30
2017-09-16T22:26:16.330Z,12.37
2017-09-16T22:28:44.362Z,12.34
2017-09-16T22:31:12.259Z,12.31
2017-09-16T22:33:40.156Z,12.36
2017-09-16T22:36:08.246Z,12.34
2017-09-16T22:38:36.174Z,12.31
2017-09-16T22:41:04.075Z,12.21
2017-09-16T22:43:32.048Z,12.03
2017-09-16T22:45:59.980Z,12.08
2017-09-16T22:48:28.012Z,12.10
2017-09-16T22:50:55.925Z,11.95
2017-09-16T22:53:23.855Z,12.02
2017-09-16T22:55:52.175Z,12.04
2017-09-16T22:58:20.171Z,11.99
2017-09-16T23:00:48.102Z,12.00
2017-09-16T23:03:16.107Z,11.95
2017-09-16T23:05:44.080Z,12.02
2017-09-16T23:08:12.064Z,11.97
2017-09-16T23:10:40.024Z,11.95
2017-09-16T23:13:07.936Z,11.94
2017-09-16T23:15:35.848Z,11.97
2017-09-16T23:18:03.768Z,11.85
2017-09-16T23:20:31.806Z,11.89
2017-09-16T23:22:59.723Z,11.89
2017-09-16T23:25:27.689Z,11.97
2017-09-16T23:27:55.699Z,11.94
2017-09-16T23:30:23.635Z,11.83
2017-09-16T23:32:51.533Z,11.88
2017-09-16T23:35:19.534Z,11.91
2017-09-16T23:37:47.924Z,11.86
2017-09-16T23:40:15.869Z,11.70
2017-09-16T23:42:44.195Z,11.69
2017-09-16T23:45:12.113Z,11.65
2017-09-16T23:47:40.046Z,11.69
2017-09-16T23:50:07.970Z,11.72
2017-09-16T23:52:35.875Z,11.73
2017-09-16T23:55:03.795Z,11.60
2017-09-16T23:57:32.444Z,11.60
